Main page
METAR-TAF:

METAR-TAF

Airports :

RAF Marham

Marham, England

latitude: 52-39N, longitude: 000-34E, elevation: 23 m

Current weather observation

The report was made 28 minutes ago, at 21:50 UTC
Wind 5 kt from the Southwest
Temperature 1°C
Humidity 100%
Pressure 997 hPa
Visibility: 4000 m
Broken clouds at a height of 400 ft
mist

METAR: EGYM 222150Z 23005KT 4000 BR BKN004 01/01 Q0997 YLO2

Time: 22:18 (22:18 UTC)

Forecast

The report was made 5 hours and 28 minutes ago, at 16:50 UTC
Forecast valid from 22 at 18 UTC to 22 at 21 UTC
Wind 8 kt from the Southwest
Visibility 10 km or more
Scattered clouds at a height of 3000 ft
Probability 30% :
Temporary
from 22 at 18 UTC to 22 at 19 UTC
Visibility: 5000 m
Scattered clouds at a height of 2000 ft
light rain showers, snow
Temporary
from 22 at 19 UTC to 22 at 21 UTC
Visibility: 3000 m
Broken clouds at a height of 1000 ft
rain showers, snow

TAF: EGYM 221650Z 2218/2221 22008KT 9999 SCT030 PROB30 TEMPO 2218/2219 5000 -SHRASN SCT020 TEMPO 2219/2221 3000 SHRASN BKN010

Weather observations and forecasts of more than 4000 airports (METAR and TAF reports).

The available stations are represented by yellow and red dots on the map.

Hover mouse over dot to see the name of the station.

Then click to see weather observations and forecasts.

To change the map : click on the green buttons with a black cross to zoom in, on the green button with a dash to zoom out, or on the green arrows for adjacent maps.


METAR-TAF: